createdAt,value
2023-04-19T00:00:16.092Z,10.76
2023-04-19T00:00:38.699Z,10.76
2023-04-19T00:01:01.204Z,10.75
2023-04-19T00:01:24.107Z,10.74
2023-04-19T00:01:45.773Z,10.74
2023-04-19T00:02:08.315Z,10.74
2023-04-19T00:02:30.825Z,10.74
2023-04-19T00:02:53.826Z,10.72
2023-04-19T00:03:16.767Z,10.72
2023-04-19T00:03:39.000Z,10.71
2023-04-19T00:04:00.921Z,10.70
2023-04-19T00:04:23.655Z,10.70
2023-04-19T00:04:47.011Z,10.68
2023-04-19T00:05:11.243Z,10.68
2023-04-19T00:05:33.449Z,10.68
2023-04-19T00:05:58.235Z,10.68
2023-04-19T00:06:20.544Z,10.68
2023-04-19T00:06:46.988Z,10.68
2023-04-19T00:07:08.666Z,10.69
2023-04-19T00:07:30.766Z,10.70
2023-04-19T00:07:52.441Z,10.71
2023-04-19T00:08:14.169Z,10.72
2023-04-19T00:08:36.008Z,10.73
2023-04-19T00:08:57.704Z,10.74
2023-04-19T00:09:19.377Z,10.74
2023-04-19T00:10:06.557Z,10.75
2023-04-19T00:10:28.622Z,10.74
2023-04-19T00:10:50.298Z,10.73
2023-04-19T00:11:11.982Z,10.73
2023-04-19T00:11:33.869Z,10.72
2023-04-19T00:11:55.653Z,10.71
2023-04-19T00:12:17.426Z,10.70
2023-04-19T00:12:39.222Z,10.69
2023-04-19T00:13:01.210Z,10.68
2023-04-19T00:13:23.101Z,10.67
2023-04-19T00:13:44.917Z,10.66
2023-04-19T00:14:06.664Z,10.65
2023-04-19T00:14:28.359Z,10.64
2023-04-19T00:14:49.994Z,10.64
2023-04-19T00:15:11.815Z,10.63
2023-04-19T00:15:34.618Z,10.62
2023-04-19T00:15:56.408Z,10.61
2023-04-19T00:16:18.109Z,10.60
2023-04-19T00:16:39.937Z,10.60
2023-04-19T00:17:01.689Z,10.59
2023-04-19T00:17:23.691Z,10.58
2023-04-19T00:17:45.897Z,10.58
2023-04-19T00:18:07.714Z,10.57
2023-04-19T00:18:30.236Z,10.56
2023-04-19T00:18:52.021Z,10.56
2023-04-19T00:19:13.693Z,10.56
2023-04-19T00:19:35.376Z,10.55
2023-04-19T00:19:57.570Z,10.54
2023-04-19T00:20:20.278Z,10.54
2023-04-19T00:20:42.364Z,10.54
2023-04-19T00:21:04.434Z,10.55
2023-04-19T00:21:26.757Z,10.56
2023-04-19T00:21:48.743Z,10.57
2023-04-19T00:22:10.733Z,10.58
2023-04-19T00:22:32.514Z,10.60
2023-04-19T00:22:54.302Z,10.61
2023-04-19T00:23:16.083Z,10.63
2023-04-19T00:23:37.973Z,10.65
2023-04-19T00:24:01.390Z,10.66
2023-04-19T00:24:23.213Z,10.66
2023-04-19T00:24:45.074Z,10.66
2023-04-19T00:25:07.053Z,10.67
2023-04-19T00:25:30.415Z,10.67
2023-04-19T00:25:52.255Z,10.67
2023-04-19T00:26:15.372Z,10.67
2023-04-19T00:26:37.972Z,10.66
2023-04-19T00:27:00.065Z,10.65
2023-04-19T00:27:21.960Z,10.64
2023-04-19T00:27:43.632Z,10.65
2023-04-19T00:28:05.422Z,10.65
2023-04-19T00:28:27.416Z,10.64
2023-04-19T00:28:49.055Z,10.63
2023-04-19T00:29:10.770Z,10.62
2023-04-19T00:29:33.688Z,10.62
2023-04-19T00:29:56.900Z,10.61
2023-04-19T00:30:20.010Z,10.61
2023-04-19T00:30:42.142Z,10.60
2023-04-19T00:31:05.637Z,10.60
2023-04-19T00:31:28.315Z,10.60
2023-04-19T00:31:50.116Z,10.59
2023-04-19T00:32:11.792Z,10.59
2023-04-19T00:32:33.637Z,10.58
2023-04-19T00:32:55.355Z,10.58
2023-04-19T00:33:20.058Z,10.57
2023-04-19T00:33:43.706Z,10.57
2023-04-19T00:34:06.042Z,10.57
2023-04-19T00:34:27.717Z,10.57
2023-04-19T00:34:50.427Z,10.56
2023-04-19T00:35:12.209Z,10.56
2023-04-19T00:35:33.793Z,10.56
2023-04-19T00:35:55.470Z,10.55
2023-04-19T00:36:17.086Z,10.55
2023-04-19T00:36:41.903Z,10.55
2023-04-19T00:37:04.760Z,10.54
2023-04-19T00:37:27.727Z,10.54
2023-04-19T00:37:49.507Z,10.54
2023-04-19T00:38:11.140Z,10.55
2023-04-19T00:38:32.773Z,10.56
2023-04-19T00:38:54.563Z,10.57
2023-04-19T00:39:16.341Z,10.58
2023-04-19T00:39:38.302Z,10.59
2023-04-19T00:40:00.569Z,10.60
2023-04-19T00:40:22.405Z,10.61
2023-04-19T00:40:44.299Z,10.62
2023-04-19T00:41:06.188Z,10.63
2023-04-19T00:41:28.342Z,10.63
2023-04-19T00:41:50.161Z,10.63
2023-04-19T00:42:13.624Z,10.63
2023-04-19T00:42:35.673Z,10.62
2023-04-19T00:42:57.556Z,10.61
2023-04-19T00:43:19.257Z,10.60
2023-04-19T00:43:40.923Z,10.59
2023-04-19T00:44:27.664Z,10.57
2023-04-19T00:44:49.886Z,10.56
2023-04-19T00:45:11.489Z,10.55
2023-04-19T00:45:33.328Z,10.54
2023-04-19T00:45:55.194Z,10.52
2023-04-19T00:46:17.292Z,10.52
2023-04-19T00:47:52.095Z,10.48
2023-04-19T00:48:14.099Z,10.46
2023-04-19T00:48:35.725Z,10.45
2023-04-19T00:48:57.467Z,10.45
2023-04-19T00:49:19.629Z,10.44
2023-04-19T00:49:41.239Z,10.43
2023-04-19T00:50:03.431Z,10.42
2023-04-19T00:50:25.561Z,10.41
2023-04-19T00:50:47.624Z,10.40
2023-04-19T00:51:10.218Z,10.39
2023-04-19T00:51:32.144Z,10.38
2023-04-19T00:51:53.782Z,10.38
2023-04-19T00:52:15.464Z,10.38
2023-04-19T00:52:37.256Z,10.37
2023-04-19T00:52:58.932Z,10.39
2023-04-19T00:53:20.757Z,10.40
2023-04-19T00:53:42.397Z,10.41
2023-04-19T00:54:04.190Z,10.43
2023-04-19T00:54:25.968Z,10.44
2023-04-19T00:54:48.059Z,10.46
2023-04-19T00:55:09.743Z,10.46
2023-04-19T00:55:31.729Z,10.48
2023-04-19T00:55:53.850Z,10.49
2023-04-19T00:56:15.671Z,10.50
2023-04-19T00:56:37.290Z,10.51
2023-04-19T00:56:59.073Z,10.51
2023-04-19T00:57:21.169Z,10.51
2023-04-19T00:57:45.300Z,10.51
2023-04-19T00:58:07.907Z,10.50
2023-04-19T00:58:31.019Z,10.50
2023-04-19T00:58:56.118Z,10.50
2023-04-19T00:59:17.857Z,10.49
2023-04-19T00:59:39.851Z,10.48
2023-04-19T01:00:05.625Z,10.48
2023-04-19T01:00:28.437Z,10.48
2023-04-19T01:00:50.157Z,10.48
2023-04-19T01:01:12.862Z,10.47
2023-04-19T01:01:34.812Z,10.46
2023-04-19T01:01:56.792Z,10.46
2023-04-19T01:02:18.649Z,10.46
2023-04-19T01:02:40.611Z,10.46
2023-04-19T01:03:03.495Z,10.45
2023-04-19T01:03:29.020Z,10.45
2023-04-19T01:03:50.868Z,10.45
2023-04-19T01:04:15.944Z,10.45
2023-04-19T01:04:38.184Z,10.45
2023-04-19T01:05:01.232Z,10.45
2023-04-19T01:05:22.988Z,10.44
2023-04-19T01:05:45.756Z,10.44
2023-04-19T01:06:08.086Z,10.44
2023-04-19T01:06:29.987Z,10.44
2023-04-19T01:06:51.963Z,10.43
2023-04-19T01:07:13.964Z,10.43
2023-04-19T01:07:37.882Z,10.43
2023-04-19T01:08:00.468Z,10.41
2023-04-19T01:08:22.474Z,10.41
2023-04-19T01:08:44.496Z,10.41
2023-04-19T01:09:06.450Z,10.41
2023-04-19T01:09:28.233Z,10.42
2023-04-19T01:09:50.121Z,10.42
2023-04-19T01:10:11.959Z,10.44
2023-04-19T01:10:33.903Z,10.46
2023-04-19T01:10:55.676Z,10.47
2023-04-19T01:11:17.328Z,10.49
2023-04-19T01:11:41.859Z,10.50
2023-04-19T01:12:05.128Z,10.52
2023-04-19T01:12:27.766Z,10.54
2023-04-19T01:12:49.612Z,10.55
2023-04-19T01:13:11.397Z,10.56
2023-04-19T01:13:33.899Z,10.57
2023-04-19T01:13:55.790Z,10.57
2023-04-19T01:14:43.748Z,10.58
2023-04-19T01:15:06.045Z,10.57
2023-04-19T01:15:27.731Z,10.57
2023-04-19T01:15:50.996Z,10.56
2023-04-19T01:16:15.797Z,10.56
2023-04-19T01:16:38.613Z,10.55
2023-04-19T01:17:00.289Z,10.55
2023-04-19T01:17:22.401Z,10.54
2023-04-19T01:17:44.263Z,10.53
2023-04-19T01:18:06.195Z,10.53
2023-04-19T01:18:32.333Z,10.53
2023-04-19T01:18:54.226Z,10.52
2023-04-19T01:19:16.209Z,10.52
2023-04-19T01:19:38.097Z,10.51
2023-04-19T01:20:00.300Z,10.51
2023-04-19T01:20:22.383Z,10.50
2023-04-19T01:20:44.091Z,10.49
2023-04-19T01:21:06.442Z,10.49
2023-04-19T01:21:30.043Z,10.48
2023-04-19T01:21:52.216Z,10.47
2023-04-19T01:22:23.423Z,10.47
2023-04-19T01:22:45.060Z,10.46
2023-04-19T01:23:10.777Z,10.45
2023-04-19T01:23:32.513Z,10.45
2023-04-19T01:23:54.295Z,10.45
2023-04-19T01:24:17.788Z,10.43
2023-04-19T01:24:39.501Z,10.43
2023-04-19T01:25:01.372Z,10.43
2023-04-19T01:25:23.582Z,10.43
2023-04-19T01:25:45.772Z,10.44
2023-04-19T01:26:07.763Z,10.45
2023-04-19T01:26:30.365Z,10.47
2023-04-19T01:26:52.019Z,10.48
2023-04-19T01:27:13.834Z,10.50
2023-04-19T01:27:35.618Z,10.51
2023-04-19T01:27:57.403Z,10.53
2023-04-19T01:28:18.984Z,10.54
2023-04-19T01:28:40.766Z,10.55
2023-04-19T01:29:04.203Z,10.56
2023-04-19T01:29:26.277Z,10.56
2023-04-19T01:29:47.962Z,10.57
2023-04-19T01:30:09.964Z,10.57
2023-04-19T01:30:32.245Z,10.56
2023-04-19T01:30:54.375Z,10.56
2023-04-19T01:31:16.372Z,10.56
2023-04-19T01:31:38.384Z,10.55
2023-04-19T01:32:28.415Z,10.54
2023-04-19T01:32:51.253Z,10.53
2023-04-19T01:33:13.121Z,10.52
2023-04-19T01:33:35.019Z,10.51
2023-04-19T01:33:56.792Z,10.50
2023-04-19T01:34:47.010Z,10.49
2023-04-19T01:35:10.663Z,10.49
2023-04-19T01:35:32.323Z,10.48
2023-04-19T01:35:54.001Z,10.47
2023-04-19T01:36:15.833Z,10.47
2023-04-19T01:36:37.567Z,10.46
2023-04-19T01:36:59.197Z,10.46
2023-04-19T01:37:20.932Z,10.45
2023-04-19T01:37:42.921Z,10.44
2023-04-19T01:38:05.326Z,10.44
2023-04-19T01:38:27.513Z,10.43
2023-04-19T01:38:49.253Z,10.42
2023-04-19T01:39:11.293Z,10.41
2023-04-19T01:39:35.017Z,10.40
2023-04-19T01:39:56.638Z,10.39
2023-04-19T01:40:18.565Z,10.39
2023-04-19T01:40:40.595Z,10.39
2023-04-19T01:41:02.456Z,10.39
2023-04-19T01:41:26.501Z,10.39
2023-04-19T01:41:48.279Z,10.40
2023-04-19T01:42:10.385Z,10.40
2023-04-19T01:42:32.461Z,10.42
2023-04-19T01:42:55.474Z,10.43
2023-04-19T01:43:17.185Z,10.45
2023-04-19T01:43:38.874Z,10.45
2023-04-19T01:44:00.527Z,10.45
2023-04-19T01:44:22.317Z,10.45
2023-04-19T01:44:44.099Z,10.46
2023-04-19T01:45:06.184Z,10.46
2023-04-19T01:45:28.273Z,10.46
2023-04-19T01:45:49.949Z,10.45
2023-04-19T01:46:11.947Z,10.45
2023-04-19T01:46:33.763Z,10.44
2023-04-19T01:47:21.183Z,10.44
2023-04-19T01:47:43.008Z,10.42
2023-04-19T01:48:05.188Z,10.42
2023-04-19T01:48:29.301Z,10.41
2023-04-19T01:48:50.980Z,10.40
2023-04-19T01:49:12.662Z,10.39
2023-04-19T01:49:34.550Z,10.38
2023-04-19T01:49:56.335Z,10.38
2023-04-19T01:50:18.000Z,10.37
2023-04-19T01:50:39.705Z,10.36
2023-04-19T01:51:01.226Z,10.37
2023-04-19T01:51:23.274Z,10.35
2023-04-19T01:52:09.827Z,10.35
2023-04-19T01:52:31.486Z,10.33
2023-04-19T01:52:53.064Z,10.32
2023-04-19T01:53:14.855Z,10.32
2023-04-19T01:53:36.481Z,10.32
2023-04-19T01:53:58.829Z,10.30
2023-04-19T01:54:20.626Z,10.30
2023-04-19T01:54:44.613Z,10.29
2023-04-19T01:55:06.840Z,10.28
2023-04-19T01:55:29.340Z,10.28
2023-04-19T01:55:51.226Z,10.27
2023-04-19T01:56:13.829Z,10.27
2023-04-19T01:56:35.722Z,10.26
2023-04-19T01:56:57.942Z,10.26
2023-04-19T01:57:20.419Z,10.25
2023-04-19T01:57:42.400Z,10.24
2023-04-19T01:58:04.080Z,10.24
2023-04-19T01:58:25.763Z,10.25
2023-04-19T01:58:47.548Z,10.25
2023-04-19T01:59:09.361Z,10.26
2023-04-19T01:59:30.964Z,10.27
2023-04-19T01:59:53.117Z,10.28
2023-04-19T02:00:14.886Z,10.30
2023-04-19T02:00:36.679Z,10.31
2023-04-19T02:00:59.641Z,10.32
2023-04-19T02:01:21.774Z,10.32
2023-04-19T02:01:43.670Z,10.34
2023-04-19T02:02:06.581Z,10.34
2023-04-19T02:02:29.808Z,10.35
2023-04-19T02:02:51.663Z,10.35
2023-04-19T02:03:13.665Z,10.35
2023-04-19T02:03:40.425Z,10.35
2023-04-19T02:04:02.718Z,10.34
2023-04-19T02:04:26.740Z,10.33
2023-04-19T02:04:48.377Z,10.32
2023-04-19T02:05:10.973Z,10.31
2023-04-19T02:05:33.082Z,10.30
2023-04-19T02:05:54.950Z,10.29
2023-04-19T02:06:17.778Z,10.28
2023-04-19T02:06:39.637Z,10.26
2023-04-19T02:07:01.224Z,10.25
2023-04-19T02:07:24.239Z,10.24
2023-04-19T02:07:46.026Z,10.22
2023-04-19T02:08:07.719Z,10.21
2023-04-19T02:08:29.588Z,10.21
2023-04-19T02:08:51.374Z,10.20
2023-04-19T02:09:14.014Z,10.19
2023-04-19T02:09:37.627Z,10.19
2023-04-19T02:09:59.714Z,10.18
2023-04-19T02:10:21.684Z,10.17
2023-04-19T02:10:43.474Z,10.16
2023-04-19T02:11:08.330Z,10.16
2023-04-19T02:11:30.365Z,10.15
2023-04-19T02:11:51.996Z,10.14
2023-04-19T02:12:13.990Z,10.13
2023-04-19T02:12:39.763Z,10.12
2023-04-19T02:13:01.542Z,10.12
2023-04-19T02:13:23.631Z,10.11
2023-04-19T02:13:45.420Z,10.12
2023-04-19T02:14:07.098Z,10.12
2023-04-19T02:14:28.890Z,10.12
2023-04-19T02:14:50.596Z,10.13
2023-04-19T02:15:12.289Z,10.14
2023-04-19T02:15:36.177Z,10.15
2023-04-19T02:15:58.309Z,10.15
2023-04-19T02:16:19.947Z,10.16
2023-04-19T02:16:41.927Z,10.17
2023-04-19T02:17:03.830Z,10.16
2023-04-19T02:17:26.570Z,10.17
2023-04-19T02:17:48.336Z,10.17
2023-04-19T02:18:11.234Z,10.17
2023-04-19T02:18:42.729Z,10.16
2023-04-19T02:19:04.321Z,10.15
2023-04-19T02:19:26.344Z,10.14
2023-04-19T02:19:48.120Z,10.13
2023-04-19T02:20:10.385Z,10.13
2023-04-19T02:20:32.264Z,10.12
2023-04-19T02:20:53.950Z,10.11
2023-04-19T02:21:16.343Z,10.10
2023-04-19T02:21:38.131Z,10.10
2023-04-19T02:21:59.908Z,10.09
2023-04-19T02:22:47.479Z,10.08
2023-04-19T02:23:09.355Z,10.07
2023-04-19T02:23:30.996Z,10.07
2023-04-19T02:23:52.624Z,10.06
2023-04-19T02:24:14.493Z,10.05
2023-04-19T02:24:37.639Z,10.04
2023-04-19T02:25:00.344Z,10.04
2023-04-19T02:25:24.770Z,10.03
2023-04-19T02:25:46.862Z,10.02
2023-04-19T02:26:10.904Z,10.02
2023-04-19T02:26:32.583Z,10.01
2023-04-19T02:26:54.466Z,10.01
2023-04-19T02:27:16.453Z,10.00
2023-04-19T02:27:38.241Z,10.00
2023-04-19T02:28:00.232Z,10.00
2023-04-19T02:28:22.117Z,10.01
2023-04-19T02:28:44.286Z,10.02
2023-04-19T02:29:07.432Z,10.03
2023-04-19T02:29:29.135Z,10.04
2023-04-19T02:29:51.094Z,10.06
2023-04-19T02:30:13.195Z,10.06
2023-04-19T02:30:35.989Z,10.08
2023-04-19T02:30:57.979Z,10.10
2023-04-19T02:31:19.827Z,10.11
2023-04-19T02:31:41.856Z,10.12
2023-04-19T02:32:05.775Z,10.14
2023-04-19T02:32:27.513Z,10.14
2023-04-19T02:32:49.488Z,10.14
2023-04-19T02:33:12.028Z,10.15
2023-04-19T02:33:33.745Z,10.14
2023-04-19T02:33:55.472Z,10.14
2023-04-19T02:34:18.287Z,10.14
2023-04-19T02:34:40.208Z,10.14
2023-04-19T02:35:03.744Z,10.14
2023-04-19T02:35:25.429Z,10.13
2023-04-19T02:35:47.222Z,10.13
2023-04-19T02:36:08.993Z,10.13
2023-04-19T02:36:31.415Z,10.12
2023-04-19T02:36:52.973Z,10.12
2023-04-19T02:37:15.796Z,10.12
2023-04-19T02:37:37.565Z,10.12
2023-04-19T02:38:02.215Z,10.11
2023-04-19T02:38:24.516Z,10.11
2023-04-19T02:38:48.850Z,10.11
2023-04-19T02:39:10.536Z,10.10
2023-04-19T02:39:33.850Z,10.09
2023-04-19T02:39:55.532Z,10.09
2023-04-19T02:40:17.422Z,10.08
2023-04-19T02:40:39.139Z,10.07
2023-04-19T02:41:03.752Z,10.07
2023-04-19T02:41:26.089Z,10.06
2023-04-19T02:41:47.932Z,10.05
2023-04-19T02:42:09.569Z,10.03
2023-04-19T02:42:31.713Z,10.03
2023-04-19T02:42:53.695Z,10.04
2023-04-19T02:43:16.300Z,10.05
2023-04-19T02:43:38.399Z,10.06
2023-04-19T02:44:00.081Z,10.07
2023-04-19T02:44:21.856Z,10.09
2023-04-19T02:44:43.538Z,10.10
2023-04-19T02:45:05.738Z,10.12
2023-04-19T02:45:27.721Z,10.13
2023-04-19T02:45:50.746Z,10.14
2023-04-19T02:46:12.770Z,10.16
2023-04-19T02:46:34.761Z,10.17
2023-04-19T02:46:57.214Z,10.18
2023-04-19T02:47:18.893Z,10.18
2023-04-19T02:47:40.910Z,10.18
2023-04-19T02:48:02.954Z,10.18
2023-04-19T02:48:24.862Z,10.17
2023-04-19T02:48:47.465Z,10.17
2023-04-19T02:49:09.581Z,10.16
2023-04-19T02:49:36.466Z,10.16
2023-04-19T02:49:59.103Z,10.15
2023-04-19T02:50:21.046Z,10.15
2023-04-19T02:50:44.160Z,10.14
2023-04-19T02:51:05.941Z,10.13
2023-04-19T02:51:28.388Z,10.13
2023-04-19T02:51:50.531Z,10.12
2023-04-19T02:52:12.217Z,10.11
2023-04-19T02:52:34.825Z,10.11
2023-04-19T02:52:57.040Z,10.10
2023-04-19T02:53:18.907Z,10.10
2023-04-19T02:53:42.019Z,10.09
2023-04-19T02:54:03.802Z,10.09
2023-04-19T02:54:26.096Z,10.08
2023-04-19T02:54:47.983Z,10.07
2023-04-19T02:55:09.662Z,10.07
2023-04-19T02:55:32.908Z,10.06
2023-04-19T02:56:08.880Z,10.06
2023-04-19T02:56:30.816Z,10.04
2023-04-19T02:56:52.656Z,10.04
2023-04-19T02:57:14.340Z,10.03
2023-04-19T02:57:36.733Z,10.04
2023-04-19T02:57:59.481Z,10.03
2023-04-19T02:58:21.322Z,10.03
2023-04-19T02:58:57.428Z,10.03
2023-04-19T02:59:19.108Z,10.03
2023-04-19T02:59:41.303Z,10.05
2023-04-19T03:00:05.312Z,10.05
2023-04-19T03:00:28.290Z,10.07
2023-04-19T03:00:57.906Z,10.09
2023-04-19T03:01:19.832Z,10.11
2023-04-19T03:01:41.948Z,10.12
2023-04-19T03:02:04.002Z,10.14
2023-04-19T03:02:26.456Z,10.16
2023-04-19T03:02:48.392Z,10.17
2023-04-19T03:03:10.846Z,10.19
2023-04-19T03:03:58.399Z,10.20
2023-04-19T03:04:21.591Z,10.21
2023-04-19T03:04:43.530Z,10.22
2023-04-19T03:05:06.430Z,10.21
2023-04-19T03:05:28.224Z,10.21
2023-04-19T03:05:50.031Z,10.22
2023-04-19T03:06:12.809Z,10.21
2023-04-19T03:06:35.820Z,10.21
2023-04-19T03:06:57.913Z,10.21
2023-04-19T03:07:20.001Z,10.21
2023-04-19T03:07:44.321Z,10.21
2023-04-19T03:08:06.746Z,10.22
2023-04-19T03:08:28.835Z,10.22
2023-04-19T03:08:50.562Z,10.22
2023-04-19T03:09:13.025Z,10.22
2023-04-19T03:09:34.718Z,10.23
2023-04-19T03:09:56.695Z,10.22
2023-04-19T03:10:18.680Z,10.22
2023-04-19T03:10:40.366Z,10.23
2023-04-19T03:11:03.987Z,10.23
2023-04-19T03:11:26.285Z,10.22
2023-04-19T03:11:49.905Z,10.22
2023-04-19T03:12:11.894Z,10.22
2023-04-19T03:12:34.906Z,10.22
2023-04-19T03:12:56.693Z,10.21
2023-04-19T03:13:18.421Z,10.21
2023-04-19T03:13:40.365Z,10.21
2023-04-19T03:14:02.255Z,10.21
2023-04-19T03:14:24.253Z,10.21
2023-04-19T03:14:46.019Z,10.21
2023-04-19T03:15:08.321Z,10.21
2023-04-19T03:15:30.818Z,10.22
2023-04-19T03:15:52.886Z,10.22
2023-04-19T03:16:16.703Z,10.23
2023-04-19T03:16:38.626Z,10.26
2023-04-19T03:17:00.616Z,10.26
2023-04-19T03:17:22.320Z,10.28
2023-04-19T03:17:44.249Z,10.29
2023-04-19T03:18:06.174Z,10.31
2023-04-19T03:18:29.184Z,10.32
2023-04-19T03:18:51.427Z,10.32
2023-04-19T03:19:15.618Z,10.32
2023-04-19T03:19:42.266Z,10.32
2023-04-19T03:20:09.307Z,10.32
2023-04-19T03:20:31.038Z,10.32
2023-04-19T03:20:52.794Z,10.31
2023-04-19T03:21:15.071Z,10.31
2023-04-19T03:21:43.715Z,10.30
2023-04-19T03:22:06.168Z,10.30
2023-04-19T03:22:28.300Z,10.29
2023-04-19T03:22:50.817Z,10.28
2023-04-19T03:23:12.481Z,10.27
2023-04-19T03:23:34.673Z,10.27
2023-04-19T03:23:56.769Z,10.26
2023-04-19T03:24:19.781Z,10.25
2023-04-19T03:24:44.426Z,10.24
2023-04-19T03:25:17.050Z,10.23
2023-04-19T03:25:41.128Z,10.21
2023-04-19T03:26:24.043Z,10.21
2023-04-19T03:26:48.074Z,10.19
2023-04-19T03:27:10.477Z,10.17
2023-04-19T03:27:34.201Z,10.17
2023-04-19T03:27:56.295Z,10.17
2023-04-19T03:28:31.910Z,10.17
2023-04-19T03:29:07.892Z,10.18
2023-04-19T03:29:36.517Z,10.19
2023-04-19T03:30:01.882Z,10.21
2023-04-19T03:30:24.571Z,10.22
2023-04-19T03:30:46.581Z,10.23
2023-04-19T03:31:08.232Z,10.23
2023-04-19T03:31:30.768Z,10.24
2023-04-19T03:31:53.174Z,10.24
2023-04-19T03:32:15.145Z,10.25
2023-04-19T03:32:37.339Z,10.24
2023-04-19T03:33:00.423Z,10.23
2023-04-19T03:33:22.299Z,10.23
2023-04-19T03:33:44.641Z,10.22
2023-04-19T03:34:06.733Z,10.21
2023-04-19T03:34:33.749Z,10.21
2023-04-19T03:34:56.226Z,10.20
2023-04-19T03:35:18.025Z,10.19
2023-04-19T03:35:39.796Z,10.19
2023-04-19T03:36:06.592Z,10.19
2023-04-19T03:36:53.850Z,10.19
2023-04-19T03:37:15.745Z,10.18
2023-04-19T03:37:37.634Z,10.18
2023-04-19T03:38:00.018Z,10.18
2023-04-19T03:38:21.906Z,10.17
2023-04-19T03:38:43.933Z,10.16
2023-04-19T03:39:10.656Z,10.16
2023-04-19T03:39:58.215Z,10.15
2023-04-19T03:40:24.423Z,10.15
2023-04-19T03:40:47.142Z,10.15
2023-04-19T03:41:21.803Z,10.14
2023-04-19T03:41:46.344Z,10.15
2023-04-19T03:42:15.906Z,10.16
2023-04-19T03:42:51.499Z,10.17
2023-04-19T03:43:25.347Z,10.20
2023-04-19T03:43:47.031Z,10.21
2023-04-19T03:44:08.922Z,10.23
2023-04-19T03:44:31.230Z,10.25
2023-04-19T03:44:52.823Z,10.26
2023-04-19T03:45:14.779Z,10.29
2023-04-19T03:45:40.153Z,10.31
2023-04-19T03:46:01.948Z,10.31
2023-04-19T03:46:24.316Z,10.32
2023-04-19T03:46:48.089Z,10.32
2023-04-19T03:47:11.987Z,10.33
2023-04-19T03:47:37.830Z,10.33
2023-04-19T03:48:02.604Z,10.33
2023-04-19T03:48:25.219Z,10.33
2023-04-19T03:48:47.102Z,10.33
2023-04-19T03:49:08.889Z,10.33
2023-04-19T03:49:31.994Z,10.33
2023-04-19T03:49:59.101Z,10.33
2023-04-19T03:50:22.116Z,10.32
2023-04-19T03:50:45.429Z,10.32
2023-04-19T03:51:08.358Z,10.33
2023-04-19T03:51:30.973Z,10.32
2023-04-19T03:51:52.732Z,10.32
2023-04-19T03:52:14.616Z,10.32
2023-04-19T03:52:36.401Z,10.32
2023-04-19T03:52:58.309Z,10.31
2023-04-19T03:53:20.281Z,10.32
2023-04-19T03:53:42.061Z,10.32
2023-04-19T03:54:03.746Z,10.32
2023-04-19T03:54:25.832Z,10.32
2023-04-19T03:54:48.336Z,10.32
2023-04-19T03:55:19.731Z,10.33
2023-04-19T03:55:41.634Z,10.33
2023-04-19T03:56:03.448Z,10.33
2023-04-19T03:56:26.867Z,10.34
2023-04-19T03:56:48.839Z,10.34
2023-04-19T03:57:12.679Z,10.36
2023-04-19T03:57:34.430Z,10.38
2023-04-19T03:57:58.870Z,10.39
2023-04-19T03:58:29.161Z,10.42
2023-04-19T03:58:57.166Z,10.45
2023-04-19T03:59:18.952Z,10.47
2023-04-19T03:59:40.840Z,10.49
2023-04-19T04:00:07.178Z,10.52
2023-04-19T04:00:36.372Z,10.55
2023-04-19T04:00:58.402Z,10.56
2023-04-19T04:01:20.728Z,10.58
2023-04-19T04:01:42.761Z,10.59
2023-04-19T04:02:05.669Z,10.60
2023-04-19T04:02:28.466Z,10.62
2023-04-19T04:02:50.432Z,10.62
2023-04-19T04:03:12.754Z,10.63
2023-04-19T04:03:34.988Z,10.64
2023-04-19T04:03:58.177Z,10.64
2023-04-19T04:04:20.597Z,10.63
2023-04-19T04:04:42.807Z,10.64
2023-04-19T04:05:06.128Z,10.64
2023-04-19T04:05:28.529Z,10.65
2023-04-19T04:05:51.069Z,10.66
2023-04-19T04:06:13.577Z,10.66
2023-04-19T04:06:35.429Z,10.66
2023-04-19T04:06:57.052Z,10.67
2023-04-19T04:07:18.821Z,10.68
2023-04-19T04:07:40.456Z,10.68
2023-04-19T04:08:02.207Z,10.69
2023-04-19T04:08:23.972Z,10.69
2023-04-19T04:08:45.756Z,10.69
2023-04-19T04:09:07.724Z,10.70
2023-04-19T04:09:30.205Z,10.70
2023-04-19T04:09:52.130Z,10.71
2023-04-19T04:10:13.822Z,10.71
2023-04-19T04:10:37.440Z,10.72
2023-04-19T04:10:59.427Z,10.72
2023-04-19T04:11:21.827Z,10.72
2023-04-19T04:11:45.148Z,10.72
2023-04-19T04:12:07.237Z,10.73
2023-04-19T04:12:55.305Z,10.74
2023-04-19T04:13:25.997Z,10.77
2023-04-19T04:13:57.290Z,10.80
2023-04-19T04:14:23.167Z,10.83
2023-04-19T04:14:45.454Z,10.86
2023-04-19T04:15:07.957Z,10.87
2023-04-19T04:15:31.409Z,10.89
2023-04-19T04:15:53.928Z,10.91
2023-04-19T04:16:15.708Z,10.92
2023-04-19T04:16:37.815Z,10.94
2023-04-19T04:16:59.620Z,10.95
2023-04-19T04:17:21.684Z,10.95
2023-04-19T04:17:44.237Z,10.96
2023-04-19T04:18:08.494Z,10.96
2023-04-19T04:18:31.687Z,10.96
2023-04-19T04:18:53.613Z,10.96
2023-04-19T04:19:21.287Z,10.96
2023-04-19T04:19:42.993Z,10.96
2023-04-19T04:20:05.262Z,10.97
2023-04-19T04:20:27.372Z,10.97
2023-04-19T04:20:53.030Z,10.97
2023-04-19T04:21:15.887Z,10.98
2023-04-19T04:21:38.952Z,10.98
2023-04-19T04:22:01.546Z,10.98
2023-04-19T04:22:24.458Z,10.98
2023-04-19T04:22:46.910Z,10.98
2023-04-19T04:23:10.280Z,10.99
2023-04-19T04:23:33.842Z,11.00
2023-04-19T04:23:56.301Z,10.99
2023-04-19T04:24:48.608Z,11.00
2023-04-19T04:25:25.491Z,10.99
2023-04-19T04:25:47.281Z,11.00
2023-04-19T04:26:13.355Z,10.99
2023-04-19T04:26:51.812Z,10.99
2023-04-19T04:27:20.650Z,10.99
2023-04-19T04:27:44.480Z,10.99
2023-04-19T04:28:09.029Z,10.99
2023-04-19T04:28:31.733Z,10.99
2023-04-19T04:28:53.514Z,10.99
2023-04-19T04:29:16.119Z,10.99
2023-04-19T04:29:38.214Z,11.00
2023-04-19T04:30:01.142Z,11.01
2023-04-19T04:30:25.881Z,11.03
2023-04-19T04:30:51.343Z,11.05
2023-04-19T04:31:17.464Z,11.06
2023-04-19T04:31:39.483Z,11.08
2023-04-19T04:32:01.685Z,11.09
2023-04-19T04:32:28.252Z,11.11
2023-04-19T04:32:57.473Z,11.12
2023-04-19T04:33:19.337Z,11.12
2023-04-19T04:33:42.261Z,11.13
2023-04-19T04:34:05.873Z,11.13
2023-04-19T04:34:28.378Z,11.13
2023-04-19T04:34:57.464Z,11.13
2023-04-19T04:35:24.218Z,11.13
2023-04-19T04:35:53.776Z,11.13
2023-04-19T04:36:16.478Z,11.12
2023-04-19T04:36:41.077Z,11.12
2023-04-19T04:37:03.427Z,11.11
2023-04-19T04:37:26.743Z,11.10
2023-04-19T04:37:48.831Z,11.10
2023-04-19T04:38:21.332Z,11.09
2023-04-19T04:38:44.062Z,11.09
2023-04-19T04:39:05.891Z,11.10
2023-04-19T04:39:28.287Z,11.10
2023-04-19T04:39:50.233Z,11.10
2023-04-19T04:40:11.930Z,11.10
2023-04-19T04:40:33.601Z,11.10
2023-04-19T04:40:55.410Z,11.10
2023-04-19T04:41:17.579Z,11.10
2023-04-19T04:41:41.609Z,11.10
2023-04-19T04:42:04.970Z,11.09
2023-04-19T04:42:30.915Z,11.10
2023-04-19T04:42:53.611Z,11.10
2023-04-19T04:43:15.505Z,11.09
2023-04-19T04:43:37.797Z,11.09
2023-04-19T04:44:12.068Z,11.09
2023-04-19T04:44:35.634Z,11.08
2023-04-19T04:44:57.710Z,11.08
2023-04-19T04:45:19.663Z,11.08
2023-04-19T04:45:43.812Z,11.08
2023-04-19T04:46:05.847Z,11.08
2023-04-19T04:46:31.973Z,11.09
2023-04-19T04:46:53.666Z,11.11
2023-04-19T04:47:20.542Z,11.12
2023-04-19T04:47:46.914Z,11.15
2023-04-19T04:48:08.825Z,11.17
2023-04-19T04:48:31.337Z,11.19
2023-04-19T04:48:53.114Z,11.22
2023-04-19T04:49:15.005Z,11.24
2023-04-19T04:49:37.194Z,11.26
2023-04-19T04:50:00.010Z,11.28
2023-04-19T04:50:21.885Z,11.29
2023-04-19T04:50:43.980Z,11.30
2023-04-19T04:51:05.874Z,11.31
2023-04-19T04:51:28.888Z,11.31
2023-04-19T04:51:50.971Z,11.31
2023-04-19T04:52:13.164Z,11.31
2023-04-19T04:52:48.060Z,11.31
2023-04-19T04:53:16.768Z,11.32
2023-04-19T04:53:40.198Z,11.32
2023-04-19T04:54:01.985Z,11.33
2023-04-19T04:54:23.973Z,11.32
2023-04-19T04:54:46.269Z,11.33
2023-04-19T04:55:16.170Z,11.33
2023-04-19T04:55:39.048Z,11.34
2023-04-19T04:56:00.789Z,11.34
2023-04-19T04:56:25.429Z,11.33
2023-04-19T04:56:47.286Z,11.34
2023-04-19T04:57:10.374Z,11.34
2023-04-19T04:57:31.991Z,11.35
2023-04-19T04:57:53.941Z,11.35
2023-04-19T04:58:20.581Z,11.35
2023-04-19T04:59:08.604Z,11.36
2023-04-19T04:59:33.354Z,11.37
2023-04-19T04:59:55.962Z,11.36
2023-04-19T05:00:18.257Z,11.37
2023-04-19T05:00:48.524Z,11.37
2023-04-19T05:01:10.546Z,11.37
2023-04-19T05:01:34.594Z,11.37
2023-04-19T05:01:58.448Z,11.37